Time;durP1;ratioP1;P1;durP2;ratioP2;P2;SDS_P1;SDS_P2;PMS_P1;PMS_P2;Temp;Humidity;BMP_temperature;BMP_pressure;BME280_temperature;BME280_humidity;BME280_pressure;Samples;Min_cycle;Max_cycle;Signal;HPM_P1;HPM_P2
2022/11/04 00:01:56;;;;;;;2.47;1.13;;;12.90;99.90;;;;;;5087589;28;20619;-32
2022/11/04 00:04:27;;;;;;;3.47;1.50;;;12.90;99.90;;;;;;5102350;28;20263;-33
2022/11/04 00:06:55;;;;;;;3.73;1.13;;;12.80;99.90;;;;;;5099585;28;20248;-34
2022/11/04 00:09:25;;;;;;;5.53;1.50;;;12.80;99.90;;;;;;5084672;28;20325;-33
2022/11/04 00:17:50;;;;;;;3.30;1.20;;;12.80;99.90;;;;;;5059074;28;20203;-32
2022/11/04 00:28:42;;;;;;;3.90;1.47;;;12.60;99.90;;;;;;5087320;28;20293;-33
2022/11/04 00:33:57;;;;;;;5.70;0.93;;;12.60;99.90;;;;;;5088265;28;20644;-33
2022/11/04 00:36:25;;;;;;;3.47;1.23;;;12.60;99.90;;;;;;5083420;28;20217;-32
2022/11/04 00:38:52;;;;;;;4.27;1.30;;;12.50;99.90;;;;;;5093282;28;20205;-33
2022/11/04 00:41:27;;;;;;;4.97;1.30;;;12.50;99.90;;;;;;5094717;28;20916;-33
2022/11/04 00:43:57;;;;;;;4.33;1.10;;;12.50;99.90;;;;;;5088334;28;20617;-33
2022/11/04 00:46:28;;;;;;;4.50;1.20;;;12.50;99.90;;;;;;5088105;28;20198;-32
2022/11/04 00:48:56;;;;;;;4.50;1.17;;;12.50;99.90;;;;;;5089920;28;20207;-33
2022/11/04 00:51:23;;;;;;;4.57;1.23;;;12.50;99.90;;;;;;5105362;28;20238;-32
2022/11/04 00:53:53;;;;;;;4.07;1.60;;;12.50;99.90;;;;;;5107888;28;20514;-32
2022/11/04 00:56:23;;;;;;;4.10;1.00;;;12.40;99.90;;;;;;5107312;28;20194;-33
2022/11/04 00:58:50;;;;;;;3.93;1.13;;;12.40;99.90;;;;;;5091834;28;20198;-33
2022/11/04 01:01:18;;;;;;;3.77;1.03;;;12.40;99.90;;;;;;5096442;28;20313;-32
2022/11/04 01:03:46;;;;;;;4.53;1.03;;;12.30;99.90;;;;;;5096289;28;20218;-32
2022/11/04 01:06:16;;;;;;;4.87;1.20;;;12.30;99.90;;;;;;5084566;28;20376;-32
2022/11/04 01:08:44;;;;;;;4.10;1.07;;;12.30;99.90;;;;;;5086093;28;20211;-32
2022/11/04 01:11:12;;;;;;;4.10;1.20;;;12.30;99.90;;;;;;5090970;28;20216;-32
2022/11/04 01:13:39;;;;;;;2.53;1.37;;;12.30;99.90;;;;;;5105407;28;20629;-33
2022/11/04 01:16:09;;;;;;;4.87;1.30;;;12.30;99.90;;;;;;5086640;28;20214;-33
2022/11/04 01:18:37;;;;;;;3.63;1.10;;;12.30;99.90;;;;;;5086992;28;20301;-33
2022/11/04 01:21:06;;;;;;;3.93;1.23;;;12.30;99.90;;;;;;5086532;28;20223;-33
2022/11/04 01:23:34;;;;;;;3.97;1.17;;;12.40;99.90;;;;;;5087291;28;20231;-32
2022/11/04 01:26:10;;;;;;;3.97;1.23;;;12.40;99.90;;;;;;5101410;28;20216;-32
2022/11/04 01:28:37;;;;;;;6.67;1.30;;;12.40;99.90;;;;;;5100403;28;20299;-32
2022/11/04 01:31:07;;;;;;;6.87;1.50;;;12.40;99.90;;;;;;5097693;28;20313;-33
2022/11/04 01:33:36;;;;;;;4.17;1.30;;;12.40;99.90;;;;;;5086960;28;20196;-33
2022/11/04 01:36:05;;;;;;;7.07;1.43;;;12.40;99.90;;;;;;5095065;28;20711;-33
2022/11/04 01:38:33;;;;;;;6.70;1.40;;;12.40;99.90;;;;;;5106694;28;20225;-33
2022/11/04 01:41:05;;;;;;;4.70;1.10;;;12.40;99.90;;;;;;5098290;28;20198;-32
2022/11/04 01:43:50;;;;;;;5.53;1.10;;;12.40;99.90;;;;;;5098692;28;20329;-32
2022/11/04 01:46:23;;;;;;;2.93;0.90;;;12.50;99.90;;;;;;5092272;28;20226;-32
2022/11/04 01:48:52;;;;;;;5.47;1.20;;;12.50;99.90;;;;;;5090364;28;20194;-39
2022/11/04 01:51:20;;;;;;;5.87;1.23;;;12.40;99.90;;;;;;5101653;28;20700;-33
2022/11/04 01:53:50;;;;;;;4.23;1.37;;;12.40;99.90;;;;;;5104792;28;20241;-32
2022/11/04 01:56:19;;;;;;;8.00;1.40;;;12.40;99.90;;;;;;5107228;28;20179;-32
2022/11/04 01:58:52;;;;;;;4.53;1.20;;;12.40;99.90;;;;;;5095756;28;20238;-32
2022/11/04 02:01:19;;;;;;;4.03;1.10;;;12.40;99.90;;;;;;5100682;28;20218;-32
2022/11/04 02:03:54;;;;;;;4.77;1.40;;;12.40;99.90;;;;;;5092607;28;20536;-32
2022/11/04 02:06:22;;;;;;;6.63;1.10;;;12.40;99.90;;;;;;5096486;28;20208;-32
2022/11/04 02:08:51;;;;;;;7.17;1.60;;;12.40;99.90;;;;;;5095546;28;20202;-32
2022/11/04 02:14:05;;;;;;;7.80;1.20;;;12.30;99.90;;;;;;5106816;28;20316;-32
2022/11/04 02:16:44;;;;;;;5.97;1.13;;;12.30;99.90;;;;;;5092919;28;20198;-32
2022/11/04 02:19:41;;;;;;;5.67;1.30;;;12.30;99.90;;;;;;5112550;27;20206;-33
2022/11/04 02:22:27;;;;;;;6.77;1.70;;;12.30;99.90;;;;;;5090979;28;20203;-32
2022/11/04 02:25:31;;;;;;;6.33;1.40;;;12.20;99.90;;;;;;5100022;28;20202;-32
2022/11/04 02:28:04;;;;;;;5.70;1.60;;;12.20;99.90;;;;;;5107013;28;20273;-34
2022/11/04 02:30:49;;;;;;;8.03;1.27;;;12.10;99.90;;;;;;5106437;28;20202;-32
2022/11/04 02:33:41;;;;;;;5.67;1.33;;;12.10;99.90;;;;;;5102906;28;20565;-32
2022/11/04 02:36:35;;;;;;;5.53;1.57;;;12.10;99.90;;;;;;5101969;28;20210;-32
2022/11/04 02:39:26;;;;;;;7.87;1.60;;;12.00;99.90;;;;;;5088303;28;20191;-33
2022/11/04 02:42:03;;;;;;;6.70;1.60;;;12.00;99.90;;;;;;5085318;28;20214;-32
2022/11/04 02:44:57;;;;;;;3.97;1.47;;;12.00;99.90;;;;;;5096949;28;20225;-32
2022/11/04 02:47:31;;;;;;;4.37;1.40;;;11.90;99.90;;;;;;5092078;28;20419;-32
2022/11/04 02:50:01;;;;;;;5.33;1.70;;;11.90;99.90;;;;;;5097127;28;20211;-32
2022/11/04 02:52:57;;;;;;;6.03;1.60;;;11.90;99.90;;;;;;5085422;28;20704;-33
2022/11/04 02:55:38;;;;;;;4.83;1.57;;;11.90;99.90;;;;;;5069430;28;20233;-33
2022/11/04 02:58:12;;;;;;;6.37;1.77;;;11.80;99.90;;;;;;5085569;28;20612;-32
2022/11/04 03:00:42;;;;;;;9.33;1.80;;;11.80;99.90;;;;;;5089055;28;20348;-33
2022/11/04 03:03:19;;;;;;;5.97;1.77;;;11.80;99.90;;;;;;5097721;28;20252;-33
2022/11/04 03:05:52;;;;;;;6.57;2.03;;;11.80;99.90;;;;;;5087963;28;20712;-32
2022/11/04 03:08:26;;;;;;;6.13;1.93;;;11.80;99.90;;;;;;5105129;28;20204;-32
2022/11/04 03:11:00;;;;;;;6.13;1.50;;;11.90;99.90;;;;;;5095461;28;20228;-32
2022/11/04 03:13:42;;;;;;;5.13;2.00;;;11.80;99.90;;;;;;5097559;28;20218;-32
2022/11/04 03:16:15;;;;;;;4.57;1.57;;;11.90;99.90;;;;;;5085959;28;20233;-33
2022/11/04 03:18:54;;;;;;;7.60;2.13;;;11.90;99.90;;;;;;5088367;28;20768;-32
2022/11/04 03:21:26;;;;;;;6.17;2.03;;;11.90;99.90;;;;;;5099284;28;20321;-33
2022/11/04 03:23:54;;;;;;;7.53;2.03;;;11.90;99.90;;;;;;5090226;28;20220;-33
2022/11/04 03:26:31;;;;;;;9.03;2.20;;;11.90;99.90;;;;;;5084701;28;20194;-33
2022/11/04 03:29:10;;;;;;;5.73;1.90;;;11.90;99.90;;;;;;5097854;28;20500;-32
2022/11/04 03:32:33;;;;;;;5.47;2.00;;;11.90;99.90;;;;;;5104760;28;20672;-32
2022/11/04 03:35:00;;;;;;;4.20;1.70;;;11.90;99.90;;;;;;5040757;28;20216;-32
2022/11/04 03:37:28;;;;;;;5.47;1.70;;;11.90;99.90;;;;;;5075019;28;20229;-32
2022/11/04 03:39:55;;;;;;;5.20;1.70;;;11.90;99.90;;;;;;5099800;28;20209;-32
2022/11/04 03:42:23;;;;;;;4.73;1.50;;;12.00;99.90;;;;;;5085182;28;20203;-33
2022/11/04 03:44:53;;;;;;;6.53;2.07;;;12.00;99.90;;;;;;5084603;28;20980;-33
2022/11/04 03:47:25;;;;;;;6.10;1.80;;;12.00;99.90;;;;;;5084830;28;20195;-33
2022/11/04 03:50:08;;;;;;;4.77;2.00;;;12.00;99.90;;;;;;5087973;28;20213;-33
2022/11/04 03:52:35;;;;;;;12.03;2.33;;;12.00;99.90;;;;;;5084760;28;20246;-33
2022/11/04 03:55:05;;;;;;;5.53;2.27;;;12.00;99.90;;;;;;5085717;28;20222;-33
2022/11/04 03:57:53;;;;;;;7.00;2.03;;;12.00;99.90;;;;;;5104992;28;20265;-33
2022/11/04 04:00:22;;;;;;;6.00;2.13;;;12.10;99.90;;;;;;5102792;28;20285;-33
2022/11/04 04:03:11;;;;;;;4.20;2.00;;;12.10;99.90;;;;;;5084607;28;20601;-33
2022/11/04 04:05:51;;;;;;;2.43;1.40;;;12.00;99.90;;;;;;5082326;28;20275;-32
2022/11/04 04:08:37;;;;;;;4.07;1.50;;;12.10;99.90;;;;;;5084949;28;20296;-33
2022/11/04 04:11:10;;;;;;;5.67;1.93;;;12.10;99.90;;;;;;5084348;28;20810;-33
2022/11/04 04:13:42;;;;;;;7.07;2.10;;;12.10;99.90;;;;;;5084146;28;20213;-33
2022/11/04 04:16:28;;;;;;;4.00;1.60;;;12.10;99.90;;;;;;5083999;28;20214;-33
2022/11/04 04:19:18;;;;;;;7.20;1.90;;;12.10;99.90;;;;;;5084769;28;20261;-33
2022/11/04 04:22:19;;;;;;;5.73;1.70;;;12.10;99.90;;;;;;5083620;28;20365;-33
2022/11/04 04:27:39;;;;;;;7.43;1.70;;;12.20;99.90;;;;;;5084393;28;20183;-33
2022/11/04 04:30:14;;;;;;;6.37;1.80;;;12.20;99.90;;;;;;5084746;28;20199;-33
2022/11/04 04:32:52;;;;;;;8.47;1.97;;;12.20;99.90;;;;;;5083866;28;20207;-33
2022/11/04 04:35:42;;;;;;;5.83;1.67;;;12.20;99.90;;;;;;5082472;28;20213;-33
2022/11/04 04:47:20;;;;;;;4.50;1.50;;;12.20;99.90;;;;;;5100241;28;20198;-33
2022/11/04 04:49:52;;;;;;;6.70;2.03;;;12.20;99.90;;;;;;5089937;28;20201;-32
2022/11/04 04:52:20;;;;;;;7.53;1.80;;;12.30;99.90;;;;;;5084289;28;20293;-33
2022/11/04 04:54:50;;;;;;;4.03;1.33;;;12.30;99.90;;;;;;5098883;28;20333;-33
2022/11/04 04:57:19;;;;;;;4.10;1.57;;;12.30;99.90;;;;;;5105150;28;20464;-33
2022/11/04 04:59:46;;;;;;;3.60;1.40;;;12.30;99.90;;;;;;5088465;28;20209;-33
2022/11/04 05:02:13;;;;;;;6.03;1.93;;;12.30;99.90;;;;;;5084190;28;20297;-33
2022/11/04 05:04:44;;;;;;;4.93;1.33;;;12.30;99.90;;;;;;5084749;28;20215;-33
2022/11/04 05:07:11;;;;;;;6.20;1.53;;;12.30;99.90;;;;;;5094039;28;20210;-32
2022/11/04 05:09:38;;;;;;;6.67;1.60;;;12.40;99.90;;;;;;5081589;28;20201;-33
2022/11/04 05:12:06;;;;;;;6.73;1.73;;;12.40;99.90;;;;;;5083490;28;20198;-32
2022/11/04 05:14:33;;;;;;;5.87;1.40;;;12.40;99.90;;;;;;5085635;28;20256;-33
2022/11/04 05:17:00;;;;;;;5.47;1.53;;;12.40;99.90;;;;;;5102472;28;20198;-32
2022/11/04 05:19:28;;;;;;;3.03;1.37;;;12.40;99.90;;;;;;5103137;28;20214;-32
2022/11/04 05:21:55;;;;;;;7.20;1.50;;;12.50;99.90;;;;;;5099477;28;20580;-32
2022/11/04 05:24:22;;;;;;;5.93;1.90;;;12.50;99.90;;;;;;5101902;28;20190;-32
2022/11/04 05:26:49;;;;;;;7.33;1.70;;;12.50;99.90;;;;;;5105993;28;20289;-32
2022/11/04 05:29:16;;;;;;;8.10;1.30;;;12.50;99.90;;;;;;5096093;28;20705;-32
2022/11/04 05:31:46;;;;;;;4.07;1.20;;;12.50;99.90;;;;;;5102891;28;20281;-32
2022/11/04 05:34:13;;;;;;;5.03;1.50;;;12.50;99.90;;;;;;5097718;28;20521;-32
2022/11/04 05:36:41;;;;;;;7.13;1.97;;;12.60;99.90;;;;;;5092780;28;20313;-32
2022/11/04 05:39:12;;;;;;;6.37;1.47;;;12.60;99.90;;;;;;5090089;28;20195;-32
2022/11/04 05:41:39;;;;;;;5.43;1.67;;;12.60;99.90;;;;;;5087566;28;20630;-32
2022/11/04 05:44:08;;;;;;;7.50;1.50;;;12.60;99.90;;;;;;5087916;28;20311;-32
2022/11/04 05:46:35;;;;;;;3.63;1.20;;;12.60;99.90;;;;;;5090422;28;20223;-32
2022/11/04 05:49:08;;;;;;;4.17;1.40;;;12.60;99.90;;;;;;5087966;28;20207;-33
2022/11/04 05:51:37;;;;;;;4.43;1.63;;;12.60;99.90;;;;;;5087809;28;20198;-32
2022/11/04 05:54:08;;;;;;;6.00;1.80;;;12.60;99.90;;;;;;5088224;28;20303;-32
2022/11/04 05:56:37;;;;;;;6.17;1.73;;;12.60;99.90;;;;;;5086110;28;20223;-32
2022/11/04 05:59:05;;;;;;;6.67;1.60;;;12.60;99.90;;;;;;5103305;28;20202;-33
2022/11/04 06:01:34;;;;;;;8.20;1.70;;;12.60;99.90;;;;;;5100288;28;20201;-33
2022/11/04 06:04:03;;;;;;;7.57;1.90;;;12.60;99.90;;;;;;5099092;28;20936;-32
2022/11/04 06:06:33;;;;;;;6.70;1.70;;;12.60;99.90;;;;;;5094494;28;20277;-32
2022/11/04 06:09:01;;;;;;;6.83;1.93;;;12.60;99.90;;;;;;5102617;28;20715;-32
2022/11/04 06:11:29;;;;;;;7.00;2.03;;;12.60;99.90;;;;;;5097000;28;20299;-32
2022/11/04 06:13:57;;;;;;;6.00;1.80;;;12.60;99.90;;;;;;5106469;28;20217;-32
2022/11/04 06:16:25;;;;;;;8.37;1.77;;;12.60;99.90;;;;;;5106188;28;20803;-31
2022/11/04 06:18:52;;;;;;;4.07;1.70;;;12.60;99.90;;;;;;5099919;28;20309;-31
2022/11/04 06:21:21;;;;;;;6.90;2.07;;;12.60;99.90;;;;;;5105607;28;20321;-32
2022/11/04 06:23:48;;;;;;;5.57;2.27;;;12.60;99.90;;;;;;5106553;28;20204;-32
2022/11/04 06:26:17;;;;;;;5.20;1.93;;;12.70;99.90;;;;;;5091624;28;20198;-32
2022/11/04 06:28:51;;;;;;;6.23;2.20;;;12.70;99.90;;;;;;5090149;28;20208;-32
2022/11/04 06:31:23;;;;;;;9.17;2.10;;;12.70;99.90;;;;;;5100606;28;20210;-32
2022/11/04 06:33:50;;;;;;;9.10;2.30;;;12.70;99.90;;;;;;5083638;28;20297;-33
2022/11/04 06:36:17;;;;;;;5.83;1.83;;;12.70;99.90;;;;;;5096615;28;20215;-32
2022/11/04 06:38:45;;;;;;;5.63;2.10;;;12.70;99.90;;;;;;5096461;28;20218;-31
2022/11/04 06:41:15;;;;;;;5.50;1.97;;;12.70;99.90;;;;;;5098819;28;20186;-32
2022/11/04 06:43:42;;;;;;;4.20;1.70;;;12.70;99.90;;;;;;5106818;28;20198;-33
2022/11/04 06:46:29;;;;;;;7.33;2.37;;;12.70;99.90;;;;;;5095479;28;20203;-33
2022/11/04 06:48:57;;;;;;;5.57;2.17;;;12.70;99.90;;;;;;5094117;28;20778;-33
2022/11/04 06:51:24;;;;;;;4.20;1.90;;;12.70;99.90;;;;;;5103203;28;20360;-33
2022/11/04 06:53:51;;;;;;;5.53;1.80;;;12.70;99.90;;;;;;5106343;28;20229;-33
2022/11/04 06:56:19;;;;;;;7.73;2.47;;;12.70;99.90;;;;;;5096033;28;20560;-33
2022/11/04 06:58:53;;;;;;;5.63;1.80;;;12.70;99.90;;;;;;5089443;28;20203;-34
2022/11/04 07:01:22;;;;;;;6.07;1.77;;;12.70;99.90;;;;;;5086318;28;20293;-33
2022/11/04 07:03:51;;;;;;;6.30;2.30;;;12.70;99.90;;;;;;5101798;28;20191;-33
2022/11/04 07:06:19;;;;;;;5.60;2.00;;;12.70;99.90;;;;;;5093883;28;20231;-32
2022/11/04 07:08:48;;;;;;;7.73;1.90;;;12.70;99.90;;;;;;5091876;28;20299;-33
2022/11/04 07:11:20;;;;;;;6.60;1.80;;;12.80;99.90;;;;;;5088941;28;20310;-33
2022/11/04 07:13:48;;;;;;;6.03;2.10;;;12.80;99.90;;;;;;5105609;28;20611;-32
2022/11/04 07:16:16;;;;;;;6.90;2.10;;;12.80;99.90;;;;;;5096413;28;20215;-35
2022/11/04 07:18:46;;;;;;;4.93;1.90;;;12.80;99.90;;;;;;5084586;28;20669;-33
2022/11/04 07:21:14;;;;;;;7.03;2.00;;;12.80;99.90;;;;;;5083412;28;20736;-32
2022/11/04 07:23:41;;;;;;;6.63;1.77;;;12.80;99.90;;;;;;5093968;28;20230;-33
2022/11/04 07:26:10;;;;;;;6.40;1.93;;;12.80;99.90;;;;;;5088449;28;20214;-34
2022/11/04 07:28:40;;;;;;;4.27;1.80;;;12.80;99.90;;;;;;5097673;28;20202;-33
2022/11/04 07:31:10;;;;;;;4.43;1.80;;;12.90;99.90;;;;;;5088524;28;20290;-34
2022/11/04 07:33:37;;;;;;;6.53;1.80;;;12.80;99.90;;;;;;5088272;28;20204;-34
2022/11/04 07:36:07;;;;;;;5.87;1.73;;;12.90;99.90;;;;;;5086701;28;20778;-34
2022/11/04 07:38:37;;;;;;;5.27;2.00;;;12.90;99.90;;;;;;5088038;28;20235;-34
2022/11/04 07:41:04;;;;;;;4.70;1.90;;;12.90;99.90;;;;;;5092736;27;20642;-34
2022/11/04 07:43:31;;;;;;;7.23;2.27;;;12.90;99.90;;;;;;5089299;28;20210;-34
2022/11/04 07:46:10;;;;;;;8.03;2.27;;;12.90;99.90;;;;;;5088868;28;21652;-34
2022/11/04 07:48:42;;;;;;;9.23;2.73;;;12.90;99.90;;;;;;5084707;28;20583;-34
2022/11/04 07:51:12;;;;;;;4.60;2.13;;;12.90;99.90;;;;;;5086595;28;20255;-34
2022/11/04 07:53:39;;;;;;;5.83;1.87;;;12.90;99.90;;;;;;5091400;28;20194;-34
2022/11/04 07:56:10;;;;;;;8.13;2.27;;;12.90;99.90;;;;;;5082671;28;20295;-34
2022/11/04 07:58:38;;;;;;;8.67;2.40;;;12.80;99.90;;;;;;5094117;28;20273;-35
2022/11/04 08:01:13;;;;;;;4.87;1.80;;;12.90;99.90;;;;;;5089926;28;20214;-34
2022/11/04 08:03:40;;;;;;;5.07;1.90;;;12.90;99.90;;;;;;5083284;28;20202;-34
2022/11/04 08:06:10;;;;;;;5.63;2.07;;;12.90;99.90;;;;;;5084401;28;20198;-34
2022/11/04 08:08:37;;;;;;;6.37;2.80;;;12.90;99.90;;;;;;5083948;28;20237;-34
2022/11/04 08:11:08;;;;;;;10.30;2.30;;;13.00;99.90;;;;;;5085820;28;20202;-34
2022/11/04 08:13:43;;;;;;;6.77;2.10;;;12.90;99.90;;;;;;5084752;28;20665;-34
2022/11/04 08:16:16;;;;;;;5.60;1.90;;;13.00;99.90;;;;;;5075986;28;20245;-34
2022/11/04 08:18:44;;;;;;;8.57;2.40;;;13.00;99.90;;;;;;5090208;28;20216;-34
2022/11/04 08:21:15;;;;;;;10.40;2.33;;;13.10;99.90;;;;;;5084899;28;20300;-34
2022/11/04 08:23:42;;;;;;;5.97;2.10;;;13.10;99.90;;;;;;5089203;28;20202;-34
2022/11/04 08:26:16;;;;;;;6.57;2.30;;;13.10;99.90;;;;;;5089437;28;20199;-34
2022/11/04 08:28:48;;;;;;;6.47;2.47;;;13.10;99.90;;;;;;5082723;28;20283;-34
2022/11/04 08:31:19;;;;;;;6.23;2.20;;;13.20;99.90;;;;;;5089189;28;20532;-34
2022/11/04 08:33:46;;;;;;;5.97;2.23;;;13.20;99.90;;;;;;5086060;28;20684;-34
2022/11/04 08:36:23;;;;;;;5.57;2.10;;;13.20;99.90;;;;;;5087830;28;20214;-34
2022/11/04 08:38:51;;;;;;;6.97;2.10;;;13.20;99.90;;;;;;5089072;28;20255;-34
2022/11/04 08:41:25;;;;;;;6.43;2.40;;;13.20;99.90;;;;;;5090980;28;20251;-34
2022/11/04 08:43:55;;;;;;;8.40;2.50;;;13.20;99.90;;;;;;5086495;28;20740;-34
2022/11/04 08:46:22;;;;;;;9.47;2.17;;;13.20;99.90;;;;;;5089114;28;20233;-34
2022/11/04 08:48:50;;;;;;;7.63;2.23;;;13.20;99.90;;;;;;5098048;28;20202;-34
2022/11/04 08:51:22;;;;;;;5.63;2.10;;;13.20;99.90;;;;;;5090935;28;20205;-34
2022/11/04 08:53:49;;;;;;;7.40;2.13;;;13.30;99.90;;;;;;5085985;28;20585;-34
2022/11/04 08:56:20;;;;;;;5.37;2.00;;;13.30;99.90;;;;;;5084650;28;20211;-34
2022/11/04 08:58:48;;;;;;;6.70;2.20;;;13.30;99.90;;;;;;5087765;28;20635;-34
2022/11/04 09:01:16;;;;;;;6.73;2.47;;;13.30;99.90;;;;;;5086164;28;20195;-34
2022/11/04 09:03:44;;;;;;;8.27;2.53;;;13.40;99.90;;;;;;5096759;28;20610;-34
2022/11/04 09:06:14;;;;;;;4.83;2.20;;;13.40;99.90;;;;;;5094587;28;20230;-34
2022/11/04 09:08:42;;;;;;;3.97;2.20;;;13.40;99.90;;;;;;5098665;28;20230;-34
2022/11/04 09:11:12;;;;;;;3.93;2.10;;;13.40;99.90;;;;;;5103639;28;20742;-33
2022/11/04 09:13:39;;;;;;;7.77;2.20;;;13.50;99.90;;;;;;5092900;28;20255;-33
2022/11/04 09:16:11;;;;;;;6.13;2.67;;;13.50;99.90;;;;;;5097128;28;20560;-32
2022/11/04 09:18:39;;;;;;;8.23;2.67;;;13.50;99.90;;;;;;5098298;28;20191;-32
2022/11/04 09:21:08;;;;;;;7.30;2.70;;;13.50;99.90;;;;;;5089709;28;20377;-33
2022/11/04 09:23:38;;;;;;;6.40;2.43;;;13.50;99.90;;;;;;5103761;28;20198;-34
2022/11/04 09:26:10;;;;;;;7.13;2.60;;;13.50;99.90;;;;;;5091892;28;21073;-34
2022/11/04 09:28:40;;;;;;;6.57;2.30;;;13.50;99.90;;;;;;5100353;28;20217;-33
2022/11/04 09:31:10;;;;;;;5.33;2.23;;;13.50;99.90;;;;;;5086419;28;20316;-33
2022/11/04 09:33:37;;;;;;;5.37;2.30;;;13.50;99.90;;;;;;5094119;28;20199;-34
2022/11/04 09:36:05;;;;;;;9.57;2.33;;;13.50;99.90;;;;;;5092895;28;20234;-34
2022/11/04 09:38:32;;;;;;;8.37;2.63;;;13.50;99.90;;;;;;5093917;28;20624;-34
2022/11/04 09:40:59;;;;;;;11.43;2.53;;;13.50;99.90;;;;;;5094127;28;20515;-33
2022/11/04 09:43:43;;;;;;;10.27;3.40;;;13.50;99.90;;;;;;5102478;28;20213;-34
2022/11/04 09:46:12;;;;;;;8.50;2.47;;;13.60;99.90;;;;;;5093474;27;20531;-33
2022/11/04 09:48:50;;;;;;;12.87;2.93;;;13.60;99.90;;;;;;5098934;28;20198;-34
2022/11/04 09:51:24;;;;;;;12.17;2.73;;;13.60;99.90;;;;;;5101902;28;20301;-34
2022/11/04 09:54:35;;;;;;;10.40;3.40;;;13.70;99.90;;;;;;5095324;28;20210;-34
2022/11/04 09:57:04;;;;;;;8.83;2.77;;;13.80;99.90;;;;;;5094958;28;20300;-34
2022/11/04 09:59:34;;;;;;;7.27;2.77;;;13.80;99.90;;;;;;5104812;28;20200;-33
2022/11/04 10:02:10;;;;;;;6.40;2.23;;;13.90;99.90;;;;;;5086150;28;20284;-32
2022/11/04 10:05:18;;;;;;;6.47;3.17;;;13.90;99.90;;;;;;5099338;28;20186;-34
2022/11/04 10:07:55;;;;;;;8.17;2.77;;;14.00;99.90;;;;;;5093987;28;20621;-33
2022/11/04 10:10:27;;;;;;;9.33;3.13;;;14.00;99.90;;;;;;5094039;28;20293;-33
2022/11/04 10:13:06;;;;;;;9.43;2.70;;;14.10;99.90;;;;;;5099846;28;20202;-33
2022/11/04 10:15:40;;;;;;;7.40;2.23;;;14.20;99.90;;;;;;5092617;28;20198;-32
2022/11/04 10:18:44;;;;;;;8.07;2.97;;;14.20;99.90;;;;;;5095644;28;20253;-32
2022/11/04 10:21:32;;;;;;;9.97;2.80;;;14.30;99.90;;;;;;5090785;28;20762;-32
2022/11/04 10:23:59;;;;;;;7.73;2.60;;;14.30;99.90;;;;;;5097490;28;20207;-32
2022/11/04 10:26:45;;;;;;;6.30;2.00;;;14.30;99.90;;;;;;5095034;28;20644;-32
2022/11/04 10:29:24;;;;;;;3.93;2.07;;;14.40;99.90;;;;;;5086924;28;20243;-33
2022/11/04 10:31:54;;;;;;;6.13;1.80;;;14.40;99.90;;;;;;5091892;28;20768;-32
2022/11/04 10:34:55;;;;;;;6.63;2.10;;;14.50;99.90;;;;;;5088707;28;20199;-34
2022/11/04 10:37:24;;;;;;;8.57;2.37;;;14.50;99.90;;;;;;5079659;28;20250;-34
2022/11/04 10:39:59;;;;;;;15.10;3.57;;;14.60;99.90;;;;;;5084178;28;20305;-32
2022/11/04 10:42:26;;;;;;;8.63;3.10;;;14.60;99.90;;;;;;5087359;28;20656;-32
2022/11/04 10:44:53;;;;;;;6.67;2.30;;;14.60;99.90;;;;;;5100729;28;20284;-32
2022/11/04 10:47:30;;;;;;;9.77;2.60;;;14.60;99.90;;;;;;5084633;28;20602;-32
2022/11/04 10:49:59;;;;;;;7.33;1.97;;;14.60;99.90;;;;;;5087627;28;20220;-34
2022/11/04 10:52:46;;;;;;;7.47;2.70;;;14.60;99.90;;;;;;5104297;28;20490;-33
2022/11/04 10:55:50;;;;;;;9.80;3.17;;;14.70;99.90;;;;;;5099702;28;20234;-32
2022/11/04 10:58:23;;;;;;;9.33;2.53;;;14.70;99.90;;;;;;5085324;28;20227;-32
2022/11/04 11:00:51;;;;;;;5.80;2.30;;;14.70;99.90;;;;;;5093922;28;20286;-32
2022/11/04 11:03:23;;;;;;;7.97;3.23;;;14.70;99.90;;;;;;5091541;28;20202;-32
2022/11/04 11:05:51;;;;;;;7.87;2.87;;;14.70;99.90;;;;;;5093875;28;20901;-33
2022/11/04 11:08:31;;;;;;;5.23;2.47;;;14.70;99.90;;;;;;5091812;28;20305;-32
2022/11/04 11:10:59;;;;;;;7.83;3.40;;;14.70;99.90;;;;;;5101685;28;20325;-33
2022/11/04 11:13:33;;;;;;;9.07;3.20;;;14.70;99.90;;;;;;5101989;28;20221;-33
2022/11/04 11:16:06;;;;;;;8.40;3.03;;;14.70;99.90;;;;;;5086186;28;20279;-32
2022/11/04 11:18:36;;;;;;;9.27;3.20;;;14.70;99.90;;;;;;5085460;28;20198;-33
2022/11/04 11:21:07;;;;;;;7.20;3.17;;;14.70;99.90;;;;;;5091951;28;20336;-32
2022/11/04 11:23:41;;;;;;;10.47;3.10;;;14.70;99.90;;;;;;5095079;28;20850;-32
2022/11/04 11:26:12;;;;;;;8.87;3.60;;;14.70;99.90;;;;;;5093411;28;20700;-32
2022/11/04 11:28:40;;;;;;;10.17;3.87;;;14.70;99.90;;;;;;5093410;28;20368;-32
2022/11/04 11:31:22;;;;;;;7.63;3.83;;;14.70;99.90;;;;;;5093382;28;20215;-33
2022/11/04 11:34:04;;;;;;;9.07;4.30;;;14.80;99.90;;;;;;5082779;28;20263;-32
2022/11/04 11:36:36;;;;;;;8.80;4.20;;;14.80;99.90;;;;;;5090846;28;20221;-33
2022/11/04 11:39:16;;;;;;;8.67;3.97;;;14.80;99.90;;;;;;5084633;28;20573;-33
2022/11/04 11:41:53;;;;;;;9.40;5.40;;;14.80;99.90;;;;;;5099734;28;20696;-32
2022/11/04 11:44:35;;;;;;;12.47;4.43;;;14.80;99.90;;;;;;5086393;28;20274;-32
2022/11/04 11:47:17;;;;;;;11.60;4.97;;;14.80;99.90;;;;;;5088255;28;20274;-32
2022/11/04 11:49:45;;;;;;;9.70;4.93;;;14.80;99.90;;;;;;5088357;28;20209;-32
2022/11/04 11:52:22;;;;;;;8.30;5.13;;;14.80;99.90;;;;;;5083978;28;20553;-32
2022/11/04 11:54:53;;;;;;;9.77;4.77;;;14.80;99.90;;;;;;5081441;28;20234;-32
2022/11/04 11:57:32;;;;;;;12.17;5.03;;;14.80;99.90;;;;;;5091689;28;20339;-33
2022/11/04 12:00:11;;;;;;;7.77;4.50;;;14.80;99.90;;;;;;5087946;28;20683;-33
2022/11/04 12:03:12;;;;;;;10.63;4.60;;;14.70;99.90;;;;;;5086894;28;20221;-32
2022/11/04 12:06:01;;;;;;;13.37;5.77;;;14.80;99.90;;;;;;5081848;28;20210;-33
2022/11/04 12:09:21;;;;;;;10.33;5.20;;;14.70;99.90;;;;;;5101056;28;20202;-33
2022/11/04 12:12:12;;;;;;;8.13;4.50;;;14.70;99.90;;;;;;5091403;28;20194;-32
2022/11/04 12:14:50;;;;;;;11.10;5.20;;;14.70;99.90;;;;;;5095226;28;20198;-33
2022/11/04 12:17:29;;;;;;;16.07;5.40;;;14.70;99.90;;;;;;5091776;28;20219;-33
2022/11/04 12:20:05;;;;;;;6.80;4.67;;;14.80;99.90;;;;;;5087900;28;20237;-32
2022/11/04 12:23:18;;;;;;;11.50;6.30;;;14.70;99.90;;;;;;5100771;28;20217;-32
2022/11/04 12:26:13;;;;;;;10.87;5.10;;;14.70;99.90;;;;;;5091985;28;20198;-32
2022/11/04 12:29:02;;;;;;;8.33;5.40;;;14.70;99.90;;;;;;5094622;28;20207;-32
2022/11/04 12:31:57;;;;;;;9.87;5.50;;;14.70;99.90;;;;;;5098168;28;20617;-32
2022/11/04 12:34:27;;;;;;;8.73;5.33;;;14.80;99.90;;;;;;5102088;28;20281;-33
2022/11/04 12:37:06;;;;;;;13.37;5.50;;;14.80;99.90;;;;;;5101050;28;20217;-32
2022/11/04 12:39:54;;;;;;;10.33;6.40;;;14.90;99.90;;;;;;5089437;28;20202;-32
2022/11/04 12:42:50;;;;;;;11.30;7.27;;;14.90;99.90;;;;;;5108479;28;20266;-32
2022/11/04 12:45:28;;;;;;;12.70;7.13;;;15.00;99.90;;;;;;5105514;28;20249;-32
2022/11/04 12:48:06;;;;;;;13.37;8.03;;;15.00;99.90;;;;;;5093877;28;20194;-33
2022/11/04 12:50:58;;;;;;;11.63;8.33;;;15.00;99.90;;;;;;5096547;28;20271;-31
2022/11/04 12:53:45;;;;;;;12.90;8.50;;;15.00;99.90;;;;;;5106657;28;20723;-32
2022/11/04 12:56:21;;;;;;;13.27;8.87;;;14.90;99.90;;;;;;5104367;28;20560;-32
2022/11/04 12:58:48;;;;;;;13.03;8.73;;;14.90;99.90;;;;;;5102547;28;20742;-34
2022/11/04 13:01:28;;;;;;;14.53;7.77;;;15.00;99.90;;;;;;5090751;28;20232;-32
2022/11/04 13:04:09;;;;;;;11.77;8.17;;;15.00;99.90;;;;;;5104954;28;20230;-33
2022/11/04 13:06:44;;;;;;;13.63;8.47;;;15.00;99.90;;;;;;5104472;28;20198;-32
2022/11/04 13:09:16;;;;;;;14.43;8.53;;;15.10;99.90;;;;;;5103724;28;20943;-32
2022/11/04 13:12:00;;;;;;;13.43;9.30;;;15.10;99.90;;;;;;5096366;28;20186;-31
2022/11/04 13:14:31;;;;;;;12.03;8.20;;;15.20;99.90;;;;;;5106494;27;20274;-33
2022/11/04 13:17:08;;;;;;;12.57;9.97;;;15.20;99.90;;;;;;5107412;28;20210;-34
2022/11/04 13:19:39;;;;;;;16.47;10.67;;;15.20;99.90;;;;;;5089595;28;20209;-32
2022/11/04 13:22:13;;;;;;;17.57;11.17;;;15.20;99.90;;;;;;5093883;28;20680;-32
2022/11/04 13:24:58;;;;;;;15.30;11.77;;;15.20;99.90;;;;;;5090987;28;20199;-33
2022/11/04 13:27:34;;;;;;;16.93;12.07;;;15.30;99.90;;;;;;5101600;28;20205;-33
2022/11/04 13:30:40;;;;;;;17.17;12.13;;;15.30;99.90;;;;;;5108476;28;20202;-32
2022/11/04 13:33:34;;;;;;;20.17;13.80;;;15.40;99.90;;;;;;5104075;28;20225;-32
2022/11/04 13:36:20;;;;;;;18.13;14.03;;;15.40;99.90;;;;;;5109273;28;20908;-32
2022/11/04 13:39:00;;;;;;;19.17;14.20;;;15.30;99.90;;;;;;5105268;28;20245;-32
2022/11/04 13:41:37;;;;;;;18.67;13.63;;;15.30;99.90;;;;;;5099418;28;20206;-32
2022/11/04 13:44:25;;;;;;;17.47;14.40;;;15.30;99.90;;;;;;5098359;28;20294;-32
2022/11/04 13:46:56;;;;;;;16.90;14.13;;;15.30;99.90;;;;;;5103257;28;20611;-32
2022/11/04 13:49:33;;;;;;;20.90;14.60;;;15.30;99.90;;;;;;5107320;28;20259;-32
2022/11/04 13:52:01;;;;;;;19.67;13.80;;;15.30;99.90;;;;;;5085424;28;20567;-32
2022/11/04 13:54:37;;;;;;;21.80;14.13;;;15.30;99.90;;;;;;5088573;28;20238;-33